createdAt,value
2018-05-23T17:14:20.826Z,26.70
2018-05-23T17:16:49.170Z,26.80
2018-05-23T17:19:16.729Z,26.70
2018-05-23T17:21:44.644Z,26.50
2018-05-23T17:24:12.939Z,26.50
2018-05-23T17:26:42.043Z,26.40
2018-05-23T17:29:10.351Z,26.30
2018-05-23T17:31:37.918Z,26.30
2018-05-23T17:34:05.440Z,25.90
2018-05-23T17:36:33.383Z,26.00
2018-05-23T17:39:02.428Z,25.90
2018-05-23T17:41:29.957Z,25.90
2018-05-23T17:43:58.367Z,25.80
2018-05-23T17:46:26.650Z,25.70
2018-05-23T17:48:54.984Z,25.40
2018-05-23T17:51:23.282Z,25.40
2018-05-23T17:53:51.637Z,25.30
2018-05-23T17:56:19.919Z,25.40
2018-05-23T17:58:47.458Z,25.20
2018-05-23T18:01:15.372Z,25.10
2018-05-23T18:03:43.673Z,25.10
2018-05-23T18:06:12.031Z,25.10
2018-05-23T18:08:40.348Z,25.10
2018-05-23T18:11:08.684Z,25.00
2018-05-23T18:13:37.018Z,25.00
2018-05-23T18:16:05.406Z,24.80
2018-05-23T18:18:33.704Z,24.70
2018-05-23T18:21:02.064Z,24.50
2018-05-23T18:23:30.453Z,24.40
2018-05-23T18:25:58.717Z,24.30
2018-05-23T18:28:26.364Z,24.10
2018-05-23T18:30:54.206Z,24.10
2018-05-23T18:33:22.526Z,24.10
2018-05-23T18:35:50.815Z,23.90
2018-05-23T18:38:19.135Z,23.80
2018-05-23T18:40:47.660Z,23.80
2018-05-23T18:43:16.209Z,23.70
2018-05-23T18:45:44.912Z,23.60
2018-05-23T18:48:12.487Z,23.50
2018-05-23T18:50:40.798Z,23.40
2018-05-23T18:53:08.332Z,23.30
2018-05-23T18:55:36.277Z,23.20
2018-05-23T18:58:04.584Z,23.20
2018-05-23T19:00:32.120Z,23.20
2018-05-23T19:03:00.031Z,23.20
2018-05-23T19:05:28.382Z,23.10
2018-05-23T19:07:56.637Z,22.90
2018-05-23T19:10:25.027Z,22.90
2018-05-23T19:12:53.319Z,22.70
2018-05-23T19:15:21.627Z,22.80
2018-05-23T19:17:49.926Z,22.80
2018-05-23T19:20:18.248Z,22.90
2018-05-23T19:22:46.561Z,23.00
2018-05-23T19:25:14.082Z,23.00
2018-05-23T19:27:42.003Z,23.10
2018-05-23T19:30:10.301Z,23.10
2018-05-23T19:32:38.696Z,23.10
2018-05-23T19:35:07.000Z,23.20
2018-05-23T19:37:35.349Z,23.10
2018-05-23T19:40:03.731Z,23.20
2018-05-23T19:42:32.109Z,23.20
2018-05-23T19:45:00.416Z,23.10
2018-05-23T19:47:28.833Z,23.00
2018-05-23T19:49:57.088Z,22.90
2018-05-23T19:52:25.459Z,22.80
2018-05-23T19:54:53.835Z,22.70
2018-05-23T19:57:22.182Z,22.60
2018-05-23T19:59:50.489Z,22.60
2018-05-23T20:02:18.799Z,22.60
2018-05-23T20:04:46.371Z,22.50
2018-05-23T20:07:14.650Z,22.50
2018-05-23T20:09:42.641Z,22.40
2018-05-23T20:12:11.034Z,22.30
2018-05-23T20:14:39.420Z,22.30
2018-05-23T20:17:07.708Z,22.30
2018-05-23T20:19:36.137Z,22.30
2018-05-23T20:22:04.464Z,22.30
2018-05-23T20:24:32.765Z,22.20
2018-05-23T20:27:01.795Z,21.90
2018-05-23T20:29:30.109Z,21.80
2018-05-23T20:31:58.405Z,21.70
2018-05-23T20:34:25.943Z,21.60
2018-05-23T20:36:54.312Z,21.40
2018-05-23T20:39:22.672Z,21.30
2018-05-23T20:41:50.211Z,21.30
2018-05-23T20:44:18.692Z,21.20
2018-05-23T20:46:46.244Z,21.10
2018-05-23T20:49:14.165Z,21.10
2018-05-23T20:51:42.099Z,21.00
2018-05-23T20:54:10.391Z,21.00
2018-05-23T20:56:38.763Z,21.00
2018-05-23T20:59:07.052Z,20.90
2018-05-23T21:01:34.606Z,20.90
2018-05-23T21:04:02.893Z,20.80
2018-05-23T21:06:30.438Z,20.80
2018-05-23T21:08:58.730Z,20.70
2018-05-23T21:11:26.559Z,20.60
2018-05-23T21:13:54.168Z,20.60
2018-05-23T21:16:21.918Z,20.60
2018-05-23T21:18:49.479Z,20.50
2018-05-23T21:21:17.015Z,20.50
2018-05-23T21:23:45.383Z,20.50
2018-05-23T21:26:13.308Z,20.50
2018-05-23T21:28:40.815Z,20.50
2018-05-23T21:31:08.343Z,20.40
2018-05-23T21:33:36.002Z,20.40
2018-05-23T21:36:03.541Z,20.40
2018-05-23T21:38:31.060Z,20.30
2018-05-23T21:40:58.629Z,20.30
2018-05-23T21:43:27.007Z,20.20
2018-05-23T21:45:55.040Z,20.10
